Time;durP1;ratioP1;P1;durP2;ratioP2;P2;SDS_P1;SDS_P2;PMS_P1;PMS_P2;Temp;Humidity;BMP_temperature;BMP_pressure;BME280_temperature;BME280_humidity;BME280_pressure;Samples;Min_cycle;Max_cycle;Signal;HPM_P1;HPM_P2
2021/09/07 04:30:41;;;;;;;17.20;10.60;;;11.60;99.90;;;;;;6073622;23;21415;-77
2021/09/07 04:33:07;;;;;;;16.03;12.10;;;11.60;99.90;;;;;;5008473;28;20425;-79
2021/09/07 04:35:32;;;;;;;15.03;11.97;;;11.60;99.90;;;;;;4994765;28;20410;-76
2021/09/07 04:37:58;;;;;;;15.27;11.50;;;11.60;99.90;;;;;;5003255;28;20182;-76
2021/09/07 04:40:24;;;;;;;17.73;12.30;;;11.60;99.90;;;;;;5012571;28;20210;-76
2021/09/07 04:42:49;;;;;;;16.00;11.80;;;11.60;99.90;;;;;;4992950;28;20247;-77
2021/09/07 04:45:15;;;;;;;15.17;11.73;;;11.60;99.90;;;;;;4993373;28;20182;-77
2021/09/07 04:47:40;;;;;;;13.80;11.77;;;11.60;99.90;;;;;;4993540;28;20229;-77
2021/09/07 04:50:06;;;;;;;15.23;11.60;;;11.60;99.90;;;;;;4993976;28;20195;-76
2021/09/07 04:52:32;;;;;;;13.63;11.03;;;11.60;99.90;;;;;;4993967;28;20202;-76
2021/09/07 04:54:58;;;;;;;15.23;12.20;;;11.60;99.90;;;;;;4993652;28;20414;-76
2021/09/07 04:57:23;;;;;;;16.10;11.60;;;11.70;99.90;;;;;;4993686;28;20314;-77
2021/09/07 04:59:49;;;;;;;15.10;11.87;;;11.70;99.90;;;;;;4993394;28;20306;-77
2021/09/07 05:02:14;;;;;;;13.73;11.10;;;11.70;99.90;;;;;;4992999;28;20199;-76
2021/09/07 05:04:40;;;;;;;17.20;12.70;;;11.70;99.90;;;;;;4993708;28;20180;-77
2021/09/07 05:07:05;;;;;;;14.30;11.77;;;11.80;99.90;;;;;;4993220;28;20193;-77
2021/09/07 05:09:31;;;;;;;15.27;12.50;;;11.80;99.90;;;;;;4993405;28;20179;-77
2021/09/07 05:11:56;;;;;;;13.03;10.20;;;11.80;99.90;;;;;;4993457;28;20203;-76
2021/09/07 05:14:22;;;;;;;14.37;11.80;;;11.80;99.90;;;;;;4993267;28;20183;-78
2021/09/07 05:16:47;;;;;;;15.50;11.27;;;11.90;99.90;;;;;;4993331;28;20183;-77
2021/09/07 05:19:15;;;;;;;12.93;10.40;;;11.90;99.90;;;;;;4975366;28;20648;-77
2021/09/07 05:21:41;;;;;;;16.20;12.90;;;11.90;99.90;;;;;;4993166;28;20191;-76
2021/09/07 05:24:06;;;;;;;15.80;12.80;;;12.00;99.90;;;;;;4992738;28;20414;-75
2021/09/07 05:26:32;;;;;;;14.10;11.43;;;12.10;99.90;;;;;;4975667;28;21002;-75
2021/09/07 05:28:57;;;;;;;21.73;12.90;;;12.20;99.90;;;;;;4992289;28;20604;-76
2021/09/07 05:31:23;;;;;;;19.33;12.63;;;12.30;99.90;;;;;;4992768;28;20214;-76
2021/09/07 05:33:48;;;;;;;14.63;12.97;;;12.30;99.90;;;;;;4975257;28;20179;-75
2021/09/07 05:36:14;;;;;;;15.17;12.00;;;12.30;99.90;;;;;;4992705;28;20175;-75
2021/09/07 05:38:39;;;;;;;16.90;12.13;;;12.40;99.90;;;;;;4992576;28;20321;-75
2021/09/07 05:41:05;;;;;;;17.10;12.33;;;12.50;99.90;;;;;;4992374;28;20207;-75
2021/09/07 05:43:31;;;;;;;13.60;11.43;;;12.60;99.90;;;;;;4992379;28;20182;-75
2021/09/07 05:45:56;;;;;;;14.80;11.03;;;12.70;99.90;;;;;;4992632;28;20214;-76
2021/09/07 05:48:22;;;;;;;14.07;11.77;;;12.80;99.90;;;;;;4992418;28;20365;-75
2021/09/07 05:50:47;;;;;;;16.60;12.07;;;12.90;99.90;;;;;;4992165;28;20202;-75
2021/09/07 05:53:13;;;;;;;14.60;11.80;;;13.00;99.90;;;;;;4991836;28;20732;-75
2021/09/07 05:55:38;;;;;;;13.30;11.77;;;13.00;99.90;;;;;;4992461;28;20689;-74
2021/09/07 05:58:04;;;;;;;14.40;11.73;;;13.20;99.90;;;;;;4974908;28;20205;-75
2021/09/07 06:00:30;;;;;;;14.27;11.70;;;13.30;99.90;;;;;;4992061;28;20203;-75
2021/09/07 06:02:58;;;;;;;17.10;13.23;;;13.40;99.90;;;;;;4992005;28;20172;-76
2021/09/07 06:05:23;;;;;;;14.90;11.30;;;13.40;99.90;;;;;;4992331;28;20473;-75
2021/09/07 06:07:49;;;;;;;25.20;13.87;;;13.50;99.90;;;;;;4992121;28;20522;-75
2021/09/07 06:10:15;;;;;;;16.93;12.90;;;13.60;99.90;;;;;;4992051;28;20415;-75
2021/09/07 06:12:41;;;;;;;18.33;13.70;;;13.70;99.90;;;;;;4992069;28;20195;-75
2021/09/07 06:15:07;;;;;;;19.90;13.63;;;13.80;99.90;;;;;;4992104;28;20286;-75
2021/09/07 06:17:33;;;;;;;18.47;14.07;;;13.90;99.90;;;;;;4992109;28;20831;-75
2021/09/07 06:19:58;;;;;;;22.67;15.00;;;14.00;99.90;;;;;;4991779;28;20457;-74
2021/09/07 06:22:24;;;;;;;18.67;13.60;;;14.00;99.90;;;;;;4992147;28;20299;-74
2021/09/07 06:24:52;;;;;;;24.43;13.50;;;14.20;99.90;;;;;;4992217;28;20182;-75
2021/09/07 06:27:18;;;;;;;20.20;14.40;;;14.30;99.90;;;;;;4975855;28;20178;-76
2021/09/07 06:29:43;;;;;;;20.73;15.67;;;14.40;99.90;;;;;;4991467;28;20460;-75
2021/09/07 06:32:09;;;;;;;19.83;14.87;;;14.60;99.90;;;;;;4991232;28;20581;-75
2021/09/07 06:34:34;;;;;;;28.30;15.00;;;14.70;99.90;;;;;;4991594;28;20182;-75
2021/09/07 06:37:00;;;;;;;18.47;14.20;;;14.90;99.90;;;;;;4991897;28;20183;-75
2021/09/07 06:39:25;;;;;;;26.23;15.40;;;15.10;99.90;;;;;;4991776;28;20660;-76
2021/09/07 06:41:51;;;;;;;17.73;14.50;;;15.20;99.90;;;;;;4991716;28;20199;-76
2021/09/07 06:44:16;;;;;;;16.03;13.40;;;15.30;99.90;;;;;;4991947;28;20194;-75
2021/09/07 06:46:42;;;;;;;18.37;14.40;;;15.60;99.90;;;;;;4991950;28;20163;-76
2021/09/07 06:49:08;;;;;;;18.93;14.20;;;16.00;99.90;;;;;;4991568;28;20262;-75
2021/09/07 06:51:33;;;;;;;21.73;13.70;;;16.40;99.90;;;;;;4991785;28;20195;-75
2021/09/07 06:53:59;;;;;;;20.63;14.47;;;17.00;99.90;;;;;;4991770;28;20554;-74
2021/09/07 06:56:25;;;;;;;23.73;14.20;;;17.50;99.90;;;;;;4991860;28;20708;-76
2021/09/07 06:58:50;;;;;;;16.90;14.07;;;17.80;99.90;;;;;;4992100;28;20190;-76
2021/09/07 07:01:15;;;;;;;18.07;13.77;;;18.00;99.90;;;;;;4991550;28;20215;-76
2021/09/07 07:03:41;;;;;;;19.00;12.77;;;18.40;99.90;;;;;;4991835;28;20187;-76
2021/09/07 07:06:06;;;;;;;22.63;12.87;;;18.50;99.90;;;;;;4995508;28;20668;-77
2021/09/07 07:08:32;;;;;;;16.77;13.30;;;18.70;99.90;;;;;;4995463;28;20203;-76
2021/09/07 07:10:58;;;;;;;16.40;13.80;;;18.70;99.90;;;;;;4995182;28;20290;-76
2021/09/07 07:13:23;;;;;;;17.47;11.13;;;19.00;99.90;;;;;;4995236;28;20179;-77
2021/09/07 07:15:49;;;;;;;18.40;12.70;;;19.30;99.90;;;;;;4995482;28;20186;-76
2021/09/07 07:18:14;;;;;;;21.63;13.50;;;19.70;99.90;;;;;;4995182;28;20179;-76
2021/09/07 07:20:40;;;;;;;19.00;13.80;;;20.00;99.90;;;;;;4995138;28;20217;-76
2021/09/07 07:23:05;;;;;;;15.70;12.00;;;20.10;99.90;;;;;;4995159;28;20175;-76
2021/09/07 07:25:31;;;;;;;19.90;13.43;;;20.30;99.90;;;;;;4995435;28;20171;-76
2021/09/07 07:27:57;;;;;;;19.70;13.00;;;20.30;99.90;;;;;;4995118;28;20168;-76
2021/09/07 07:30:23;;;;;;;19.70;12.77;;;20.00;99.90;;;;;;4995304;28;20414;-75
2021/09/07 07:32:49;;;;;;;25.73;13.43;;;19.80;99.90;;;;;;4994825;28;20215;-75
2021/09/07 07:35:14;;;;;;;23.77;12.73;;;19.80;99.90;;;;;;4995160;28;21089;-77
2021/09/07 07:37:40;;;;;;;24.23;13.90;;;19.80;99.90;;;;;;4995195;28;20183;-76
2021/09/07 07:40:06;;;;;;;20.77;13.17;;;20.00;99.90;;;;;;4994765;28;20210;-76
2021/09/07 07:42:32;;;;;;;21.20;13.07;;;20.20;99.90;;;;;;4977695;28;20337;-76
2021/09/07 07:44:57;;;;;;;21.13;14.30;;;20.70;99.90;;;;;;4993669;28;20486;-76
2021/09/07 07:47:23;;;;;;;16.30;11.40;;;21.30;99.90;;;;;;4993185;28;20514;-76
2021/09/07 07:49:48;;;;;;;17.97;13.30;;;21.60;99.90;;;;;;4993065;28;20516;-75
2021/09/07 07:52:14;;;;;;;22.87;12.83;;;21.70;99.90;;;;;;4993277;28;20203;-76
2021/09/07 07:54:40;;;;;;;22.73;13.07;;;21.60;99.90;;;;;;4993564;28;20194;-77
2021/09/07 07:57:06;;;;;;;22.40;13.10;;;21.60;99.90;;;;;;4993332;28;20176;-76
2021/09/07 07:59:31;;;;;;;20.00;12.57;;;22.00;99.90;;;;;;4973014;28;20187;-75
2021/09/07 08:01:57;;;;;;;17.60;11.73;;;22.40;99.90;;;;;;4994109;28;20456;-76
2021/09/07 08:04:22;;;;;;;22.10;12.50;;;22.90;99.90;;;;;;4994311;28;20174;-76
2021/09/07 08:06:48;;;;;;;16.73;11.30;;;23.10;99.90;;;;;;4991231;28;20672;-76
2021/09/07 08:09:14;;;;;;;18.10;11.57;;;23.40;99.90;;;;;;4993875;28;20238;-76
2021/09/07 08:11:39;;;;;;;15.70;11.13;;;23.80;99.90;;;;;;4994309;28;20758;-76
2021/09/07 08:14:06;;;;;;;15.90;11.93;;;23.90;99.90;;;;;;4994466;28;20601;-77
2021/09/07 08:16:32;;;;;;;12.93;11.27;;;24.10;99.90;;;;;;4993665;28;20537;-75
2021/09/07 08:18:57;;;;;;;15.20;10.83;;;24.40;99.90;;;;;;4993955;28;20403;-76
2021/09/07 08:21:23;;;;;;;12.07;10.60;;;24.60;99.90;;;;;;4994056;28;20211;-76
2021/09/07 08:23:48;;;;;;;12.60;11.10;;;24.70;99.90;;;;;;4993928;28;20225;-76
2021/09/07 08:26:14;;;;;;;16.20;11.03;;;24.80;99.90;;;;;;4994214;28;20179;-75
2021/09/07 08:28:40;;;;;;;21.90;12.40;;;24.80;99.90;;;;;;4993937;28;20190;-76
2021/09/07 08:31:05;;;;;;;19.10;11.50;;;25.00;99.90;;;;;;4993562;28;20214;-76
2021/09/07 08:33:31;;;;;;;19.00;12.53;;;25.30;99.90;;;;;;4993832;28;20250;-75
2021/09/07 08:35:57;;;;;;;19.03;10.73;;;25.40;99.90;;;;;;4993513;28;20180;-76
2021/09/07 08:38:22;;;;;;;14.80;11.40;;;25.40;99.90;;;;;;4993312;28;20949;-76
2021/09/07 08:40:48;;;;;;;16.13;11.37;;;25.50;99.90;;;;;;4976255;28;20211;-75
2021/09/07 08:43:17;;;;;;;18.30;11.03;;;25.60;99.90;;;;;;4993564;28;20243;-75
2021/09/07 08:45:43;;;;;;;16.80;11.53;;;25.80;99.90;;;;;;4993963;28;20810;-76
2021/09/07 08:48:09;;;;;;;19.17;11.50;;;26.00;99.90;;;;;;4993609;28;20414;-76
2021/09/07 08:50:34;;;;;;;14.53;10.77;;;26.00;99.90;;;;;;4993572;28;20657;-76
2021/09/07 08:53:00;;;;;;;12.47;10.67;;;26.40;99.90;;;;;;4993403;28;20187;-75
2021/09/07 08:55:27;;;;;;;13.47;10.50;;;26.70;99.90;;;;;;4993529;28;20254;-75
2021/09/07 08:57:52;;;;;;;11.20;9.67;;;27.00;99.90;;;;;;4993275;28;20238;-74
2021/09/07 09:00:30;;;;;;;15.20;10.13;;;27.10;99.90;;;;;;4993295;28;20462;-74
2021/09/07 09:02:56;;;;;;;11.17;10.00;;;27.20;99.90;;;;;;4993308;28;20712;-74
2021/09/07 09:05:31;;;;;;;12.50;10.43;;;27.30;99.90;;;;;;4993344;28;20453;-74
2021/09/07 09:07:57;;;;;;;11.57;8.47;;;27.40;99.90;;;;;;4993306;28;20402;-73
2021/09/07 09:10:24;;;;;;;10.97;9.67;;;27.60;99.90;;;;;;4993291;28;20406;-74
2021/09/07 09:13:10;;;;;;;16.37;9.67;;;27.50;99.90;;;;;;4992768;28;20869;-74
2021/09/07 09:15:36;;;;;;;13.63;9.67;;;27.30;99.90;;;;;;4993282;28;20792;-74
2021/09/07 09:18:11;;;;;;;14.70;8.90;;;27.10;99.90;;;;;;4992846;28;20421;-75
2021/09/07 09:20:38;;;;;;;14.90;9.90;;;27.30;99.90;;;;;;4992718;28;20515;-76
2021/09/07 09:23:06;;;;;;;18.23;10.40;;;27.60;99.90;;;;;;4991050;28;20442;-75
2021/09/07 09:25:43;;;;;;;13.37;10.10;;;27.40;99.90;;;;;;4975234;28;20421;-75
2021/09/07 09:28:14;;;;;;;12.93;10.27;;;27.20;99.90;;;;;;4991905;28;20852;-76
2021/09/07 09:30:49;;;;;;;15.87;10.20;;;27.30;99.90;;;;;;4992701;28;20419;-75
2021/09/07 09:33:19;;;;;;;11.83;9.33;;;27.70;99.90;;;;;;4992523;28;20429;-74
2021/09/07 09:35:47;;;;;;;18.47;9.90;;;27.90;99.90;;;;;;4992855;28;20411;-76
2021/09/07 09:38:13;;;;;;;12.57;9.93;;;28.00;99.90;;;;;;4992510;28;20446;-76
2021/09/07 09:40:39;;;;;;;10.27;9.17;;;28.00;99.90;;;;;;4992622;28;20469;-76
2021/09/07 09:43:33;;;;;;;19.20;9.80;;;28.10;99.90;;;;;;4992576;28;20414;-75
2021/09/07 09:46:22;;;;;;;12.23;9.67;;;28.40;99.90;;;;;;4992526;28;20163;-77
2021/09/07 09:48:47;;;;;;;17.60;10.33;;;28.40;99.90;;;;;;4992565;28;20406;-76
2021/09/07 09:51:19;;;;;;;14.23;9.40;;;28.40;99.90;;;;;;4992388;28;20454;-77
2021/09/07 09:53:49;;;;;;;11.67;9.27;;;28.50;99.90;;;;;;4992589;28;20182;-75
2021/09/07 09:56:16;;;;;;;11.73;8.97;;;28.70;99.90;;;;;;4992541;28;20414;-76
2021/09/07 09:58:42;;;;;;;12.77;9.10;;;28.90;99.90;;;;;;4992496;28;20477;-76
2021/09/07 10:01:08;;;;;;;11.30;8.03;;;29.00;99.90;;;;;;4992224;28;20454;-76
2021/09/07 10:03:36;;;;;;;10.23;8.23;;;29.30;99.90;;;;;;4992497;28;20221;-76
2021/09/07 10:06:02;;;;;;;15.90;8.97;;;29.00;99.90;;;;;;4990663;28;20919;-77
2021/09/07 10:08:28;;;;;;;13.93;8.90;;;28.70;99.90;;;;;;4992132;28;20422;-76
2021/09/07 10:10:58;;;;;;;11.10;8.40;;;28.60;99.90;;;;;;4992124;28;20438;-76
2021/09/07 10:13:26;;;;;;;9.37;7.70;;;28.70;99.90;;;;;;4992449;28;20218;-76
2021/09/07 10:16:01;;;;;;;9.10;8.20;;;28.70;99.90;;;;;;4992606;28;20407;-76
2021/09/07 10:21:06;;;;;;;9.17;8.27;;;28.90;99.90;;;;;;4992455;28;20462;-76
2021/09/07 10:23:53;;;;;;;11.97;7.90;;;29.30;99.90;;;;;;4992248;28;20910;-76
2021/09/07 10:26:42;;;;;;;9.40;8.27;;;29.80;99.90;;;;;;4992347;28;20399;-76
2021/09/07 10:29:09;;;;;;;12.07;8.20;;;29.50;99.90;;;;;;4992744;28;20442;-74
2021/09/07 10:31:41;;;;;;;10.23;8.30;;;29.60;99.90;;;;;;4992834;28;20450;-76
2021/09/07 10:34:07;;;;;;;10.17;7.23;;;29.70;99.90;;;;;;4992251;28;20441;-76
2021/09/07 10:36:53;;;;;;;8.63;7.83;;;29.70;99.90;;;;;;4991886;28;20411;-76
2021/09/07 10:39:30;;;;;;;8.90;7.00;;;29.70;99.90;;;;;;4994565;28;20183;-76
2021/09/07 10:41:56;;;;;;;7.83;6.97;;;29.50;99.90;;;;;;4996227;28;20969;-76
2021/09/07 10:44:26;;;;;;;11.80;8.53;;;29.40;99.90;;;;;;4996360;28;20477;-76
2021/09/07 10:46:58;;;;;;;9.77;7.80;;;29.50;99.90;;;;;;4995716;28;20920;-76
2021/09/07 10:49:40;;;;;;;9.47;8.27;;;29.30;99.90;;;;;;4995907;28;20421;-75
2021/09/07 10:52:08;;;;;;;11.87;7.40;;;29.30;99.90;;;;;;4995798;28;20434;-76
2021/09/07 10:54:49;;;;;;;8.60;7.60;;;29.50;99.90;;;;;;4996046;28;20425;-77
2021/09/07 10:57:43;;;;;;;10.20;7.63;;;29.70;99.90;;;;;;4996396;28;20421;-76
2021/09/07 11:00:17;;;;;;;7.90;7.10;;;29.50;99.90;;;;;;4995497;28;20458;-76
2021/09/07 11:02:58;;;;;;;8.53;7.10;;;29.50;99.90;;;;;;4993914;28;20442;-76
2021/09/07 11:05:23;;;;;;;10.37;8.00;;;29.50;99.90;;;;;;4990906;28;20410;-76
2021/09/07 11:08:10;;;;;;;8.13;7.43;;;29.40;99.90;;;;;;4986093;28;20414;-75
2021/09/07 11:10:46;;;;;;;7.80;7.00;;;29.10;99.90;;;;;;4981706;28;20292;-76
2021/09/07 11:13:23;;;;;;;10.93;8.73;;;29.10;99.90;;;;;;4989469;28;20414;-75
2021/09/07 11:15:49;;;;;;;10.17;7.60;;;29.20;99.90;;;;;;4993317;28;20525;-76
2021/09/07 11:18:25;;;;;;;9.40;8.20;;;29.10;99.90;;;;;;4979949;28;20423;-77
2021/09/07 11:20:52;;;;;;;8.20;7.40;;;29.00;99.90;;;;;;4993363;28;20885;-76
2021/09/07 11:23:23;;;;;;;8.27;7.10;;;28.90;99.90;;;;;;4986782;28;20437;-77
2021/09/07 11:25:58;;;;;;;17.33;7.87;;;28.90;99.90;;;;;;4986759;28;20429;-76
2021/09/07 11:28:23;;;;;;;7.53;6.83;;;28.90;99.90;;;;;;4989124;28;20912;-76
2021/09/07 11:30:51;;;;;;;8.43;7.50;;;28.90;99.90;;;;;;4990228;28;20506;-75
2021/09/07 11:33:33;;;;;;;8.77;7.77;;;28.80;99.90;;;;;;4992917;28;20175;-75
2021/09/07 11:36:01;;;;;;;8.30;7.60;;;28.50;99.90;;;;;;4983968;28;20431;-76
2021/09/07 11:38:33;;;;;;;7.77;6.90;;;28.40;99.90;;;;;;4973925;28;20536;-76
2021/09/07 11:41:01;;;;;;;12.40;7.80;;;28.20;99.90;;;;;;4973796;28;21166;-76
2021/09/07 11:43:38;;;;;;;7.87;6.67;;;28.20;99.90;;;;;;4980138;28;20418;-76
2021/09/07 11:46:21;;;;;;;15.70;8.13;;;28.10;99.90;;;;;;4992894;28;20414;-76
2021/09/07 11:48:49;;;;;;;11.67;8.43;;;28.20;99.90;;;;;;4987470;28;21041;-76
2021/09/07 11:51:30;;;;;;;9.63;7.97;;;28.10;99.90;;;;;;4991806;28;20858;-77
2021/09/07 11:53:58;;;;;;;10.20;7.63;;;28.00;99.90;;;;;;4994590;28;20414;-76
2021/09/07 11:56:27;;;;;;;13.33;7.20;;;27.90;99.90;;;;;;4994635;28;20438;-76
2021/09/07 11:59:17;;;;;;;9.83;8.07;;;28.00;99.90;;;;;;4994451;28;20493;-76
2021/09/07 12:01:47;;;;;;;10.00;7.80;;;28.20;99.90;;;;;;4976952;28;21018;-75
2021/09/07 12:04:14;;;;;;;8.53;7.73;;;28.10;99.90;;;;;;4994446;28;20907;-75
2021/09/07 12:06:45;;;;;;;8.57;7.70;;;27.90;99.90;;;;;;4994490;28;20462;-75
2021/09/07 12:09:30;;;;;;;9.23;7.90;;;27.70;99.90;;;;;;4994302;28;20518;-75
2021/09/07 12:12:13;;;;;;;10.17;7.67;;;27.60;99.90;;;;;;4994342;28;20426;-75
2021/09/07 12:14:39;;;;;;;9.80;8.17;;;27.80;99.90;;;;;;4976834;28;20529;-75
2021/09/07 12:17:05;;;;;;;9.40;7.57;;;27.80;99.90;;;;;;4994142;28;20407;-77
2021/09/07 12:19:49;;;;;;;9.77;7.60;;;27.70;99.90;;;;;;4993509;28;20442;-74
2021/09/07 12:22:26;;;;;;;10.30;7.57;;;27.60;99.90;;;;;;4976840;28;20442;-76
2021/09/07 12:25:03;;;;;;;9.70;7.40;;;27.60;99.90;;;;;;4994001;28;20429;-76
2021/09/07 12:27:39;;;;;;;13.17;7.70;;;27.40;99.90;;;;;;4994112;28;20418;-77
2021/09/07 12:30:08;;;;;;;8.23;7.43;;;27.40;99.90;;;;;;4993755;28;20414;-77
2021/09/07 12:33:09;;;;;;;9.20;7.30;;;27.40;99.90;;;;;;4976476;28;20516;-77
2021/09/07 12:35:51;;;;;;;8.30;6.47;;;27.40;99.90;;;;;;4993424;28;20919;-76
2021/09/07 12:38:20;;;;;;;8.07;6.47;;;27.30;99.90;;;;;;4976564;28;20431;-76
2021/09/07 12:40:48;;;;;;;7.07;6.37;;;27.20;99.90;;;;;;4993694;28;20489;-76
2021/09/07 12:43:14;;;;;;;8.30;6.90;;;27.20;99.90;;;;;;4993995;28;20449;-76
2021/09/07 12:45:39;;;;;;;11.00;6.83;;;27.10;99.90;;;;;;4993973;28;21072;-76
2021/09/07 12:48:05;;;;;;;7.87;7.03;;;27.10;99.90;;;;;;4993716;28;20217;-76
2021/09/07 12:50:31;;;;;;;8.40;6.80;;;27.00;99.90;;;;;;4993514;28;20179;-77
2021/09/07 12:52:59;;;;;;;7.77;6.47;;;26.80;99.90;;;;;;4993590;28;20167;-76
2021/09/07 12:55:24;;;;;;;6.97;6.37;;;26.80;99.90;;;;;;4993763;28;20254;-76
2021/09/07 12:57:50;;;;;;;9.37;7.03;;;26.70;99.90;;;;;;4993431;28;20549;-74
2021/09/07 13:00:16;;;;;;;8.50;7.60;;;26.70;99.90;;;;;;4993613;28;20205;-76
2021/09/07 13:02:41;;;;;;;8.10;7.30;;;26.70;99.90;;;;;;4993314;28;20191;-75
2021/09/07 13:05:07;;;;;;;12.03;7.77;;;26.60;99.90;;;;;;4994747;28;20207;-76
2021/09/07 13:07:32;;;;;;;10.83;7.90;;;26.60;99.90;;;;;;4993567;28;20234;-75
2021/09/07 13:09:58;;;;;;;12.43;6.93;;;26.60;99.90;;;;;;4993273;28;20226;-76
2021/09/07 13:12:23;;;;;;;7.43;6.30;;;26.40;99.90;;;;;;4993147;28;20679;-72
2021/09/07 13:14:49;;;;;;;8.20;7.40;;;26.30;99.90;;;;;;4992880;28;20214;-72
2021/09/07 13:17:14;;;;;;;8.97;6.53;;;26.40;99.90;;;;;;4992827;28;20178;-73
2021/09/07 13:19:40;;;;;;;9.60;6.20;;;26.50;99.90;;;;;;4988516;28;20270;-73
2021/09/07 13:22:06;;;;;;;7.73;6.90;;;26.50;99.90;;;;;;4990528;28;20940;-73
2021/09/07 13:24:32;;;;;;;7.20;6.50;;;26.50;99.90;;;;;;4991124;28;20206;-72
2021/09/07 13:26:58;;;;;;;7.73;7.03;;;26.60;99.90;;;;;;4990980;28;20979;-72
2021/09/07 13:29:24;;;;;;;11.00;7.13;;;26.60;99.90;;;;;;4981693;28;20423;-73
2021/09/07 13:31:51;;;;;;;10.10;7.00;;;26.40;99.90;;;;;;4983942;28;20211;-74
2021/09/07 13:34:16;;;;;;;7.70;7.00;;;26.40;99.90;;;;;;4991258;28;20180;-73
2021/09/07 13:36:42;;;;;;;7.70;6.90;;;26.30;99.90;;;;;;4989365;28;20418;-73
2021/09/07 13:39:07;;;;;;;8.13;7.30;;;26.30;99.90;;;;;;4990851;28;20649;-72
2021/09/07 13:41:33;;;;;;;7.70;6.57;;;26.40;99.90;;;;;;4990780;28;20207;-73
2021/09/07 13:43:58;;;;;;;8.87;6.83;;;26.40;99.90;;;;;;4990504;28;20191;-73
2021/09/07 13:46:27;;;;;;;10.40;7.30;;;26.30;99.90;;;;;;4990526;28;20206;-73
2021/09/07 13:48:53;;;;;;;7.43;6.73;;;26.40;99.90;;;;;;4990577;28;20210;-73
2021/09/07 13:51:18;;;;;;;7.93;7.13;;;26.40;99.90;;;;;;4990401;28;20918;-74
2021/09/07 13:53:44;;;;;;;8.70;7.23;;;26.50;99.90;;;;;;4991845;28;20258;-71
2021/09/07 13:56:09;;;;;;;8.83;7.20;;;26.40;99.90;;;;;;4992074;28;20191;-72
2021/09/07 13:58:35;;;;;;;9.30;6.97;;;26.40;99.90;;;;;;4991859;28;20179;-74
2021/09/07 14:01:00;;;;;;;8.70;7.80;;;26.40;99.90;;;;;;4991444;28;20211;-74
2021/09/07 14:03:26;;;;;;;11.70;8.17;;;26.30;99.90;;;;;;4991603;28;20179;-74
2021/09/07 14:05:52;;;;;;;8.23;7.43;;;26.20;99.90;;;;;;4992235;28;20218;-74
2021/09/07 14:08:18;;;;;;;8.77;7.97;;;26.20;99.90;;;;;;4992099;28;20184;-74
2021/09/07 14:10:43;;;;;;;7.80;7.00;;;26.20;99.90;;;;;;4991889;28;20419;-74
2021/09/07 14:13:09;;;;;;;7.67;6.90;;;26.10;99.90;;;;;;4990868;28;20184;-75
2021/09/07 14:15:34;;;;;;;9.37;7.70;;;26.10;99.90;;;;;;4974601;28;20167;-74
2021/09/07 14:18:00;;;;;;;7.50;6.33;;;26.00;99.90;;;;;;4991794;28;20585;-74
2021/09/07 14:20:25;;;;;;;13.97;7.40;;;26.00;99.90;;;;;;4991948;28;20222;-73
2021/09/07 14:22:51;;;;;;;9.40;7.73;;;26.00;99.90;;;;;;4991869;28;20223;-73
2021/09/07 14:25:17;;;;;;;8.03;7.23;;;26.00;99.90;;;;;;4992025;28;20930;-74
2021/09/07 14:27:42;;;;;;;7.37;6.17;;;25.90;99.90;;;;;;4991907;28;20163;-74
2021/09/07 14:30:09;;;;;;;8.27;7.20;;;25.90;99.90;;;;;;4991628;28;20237;-74
2021/09/07 14:32:34;;;;;;;7.90;7.00;;;25.90;99.90;;;;;;4991818;28;20211;-74
2021/09/07 14:35:00;;;;;;;7.80;7.07;;;25.80;99.90;;;;;;4991512;28;20418;-74
2021/09/07 14:37:26;;;;;;;7.50;6.80;;;25.80;99.90;;;;;;4992001;28;20179;-73
2021/09/07 14:39:53;;;;;;;11.10;10.00;;;25.60;99.90;;;;;;4991566;28;20265;-74
2021/09/07 14:42:19;;;;;;;7.40;6.70;;;25.50;99.90;;;;;;4992930;28;20992;-74
2021/09/07 14:44:46;;;;;;;9.77;7.90;;;25.60;99.90;;;;;;4993690;28;20442;-74
2021/09/07 14:47:11;;;;;;;12.37;7.47;;;25.60;99.90;;;;;;4992000;28;20266;-75
2021/09/07 14:49:38;;;;;;;7.87;7.17;;;25.60;99.90;;;;;;4991937;28;21036;-74
2021/09/07 14:52:04;;;;;;;9.77;6.50;;;25.60;99.90;;;;;;4991762;28;20261;-75
2021/09/07 14:54:29;;;;;;;11.80;6.57;;;25.60;99.90;;;;;;4991896;28;20583;-74
2021/09/07 14:56:55;;;;;;;9.20;7.40;;;25.60;99.90;;;;;;4991601;28;20180;-74
2021/09/07 14:59:20;;;;;;;7.83;7.00;;;25.70;99.90;;;;;;4991580;28;20179;-74
2021/09/07 15:01:46;;;;;;;12.03;7.00;;;25.70;99.90;;;;;;4991567;28;20207;-74
2021/09/07 15:04:13;;;;;;;9.03;6.80;;;25.70;99.90;;;;;;4991643;28;20218;-74
2021/09/07 15:06:38;;;;;;;8.50;7.60;;;25.60;99.90;;;;;;4991584;28;20168;-74
2021/09/07 15:09:04;;;;;;;13.77;7.90;;;25.60;99.90;;;;;;4991465;28;20498;-74
2021/09/07 15:11:29;;;;;;;7.47;6.60;;;25.60;99.90;;;;;;4973874;28;20233;-75
2021/09/07 15:13:55;;;;;;;7.63;6.93;;;25.60;99.90;;;;;;4991204;28;20184;-75
2021/09/07 15:16:21;;;;;;;8.33;7.37;;;25.60;99.90;;;;;;4991230;28;20728;-75
2021/09/07 15:18:46;;;;;;;8.47;7.57;;;25.60;99.90;;;;;;4991352;28;20661;-75
2021/09/07 15:21:12;;;;;;;7.90;7.10;;;25.60;99.90;;;;;;4991031;28;20312;-75
2021/09/07 15:23:37;;;;;;;6.90;6.30;;;25.50;99.90;;;;;;4991655;28;20171;-75
2021/09/07 15:26:03;;;;;;;7.60;6.90;;;25.50;99.90;;;;;;4992949;28;20179;-75
2021/09/07 15:28:29;;;;;;;8.60;6.77;;;25.40;99.90;;;;;;4994935;28;20234;-75
2021/09/07 15:30:55;;;;;;;7.50;6.70;;;25.40;99.90;;;;;;4994603;28;20214;-74
2021/09/07 15:33:21;;;;;;;8.63;7.77;;;25.40;99.90;;;;;;4994147;28;20418;-75
2021/09/07 15:35:46;;;;;;;6.77;6.20;;;25.30;99.90;;;;;;4992237;28;20273;-75
2021/09/07 15:38:11;;;;;;;10.40;6.90;;;25.30;99.90;;;;;;5009061;28;20183;-74
2021/09/07 15:40:37;;;;;;;8.23;7.23;;;25.40;99.90;;;;;;5014195;28;20573;-74
2021/09/07 15:43:03;;;;;;;7.03;6.33;;;25.30;99.90;;;;;;5013969;28;20183;-75
2021/09/07 15:45:28;;;;;;;8.60;6.90;;;25.40;99.90;;;;;;5012465;28;20174;-74
2021/09/07 15:47:54;;;;;;;6.97;6.30;;;25.30;99.90;;;;;;4974847;28;20183;-74
2021/09/07 15:50:19;;;;;;;7.10;5.93;;;25.20;99.90;;;;;;4974840;28;20180;-75
2021/09/07 15:52:48;;;;;;;8.40;7.10;;;25.20;99.90;;;;;;4973594;28;20203;-75
2021/09/07 15:55:14;;;;;;;7.67;6.97;;;25.10;99.90;;;;;;4989498;28;20656;-75
2021/09/07 15:57:40;;;;;;;10.47;7.80;;;25.10;99.90;;;;;;4994298;28;20415;-74
2021/09/07 16:00:07;;;;;;;8.33;7.33;;;25.00;99.90;;;;;;4993829;28;20465;-75
2021/09/07 16:02:32;;;;;;;8.27;7.03;;;25.00;99.90;;;;;;4994289;28;20187;-74
2021/09/07 16:04:58;;;;;;;8.27;7.50;;;24.90;99.90;;;;;;4993959;28;20506;-75
2021/09/07 16:07:23;;;;;;;12.23;6.60;;;24.90;99.90;;;;;;4993786;28;20206;-75
2021/09/07 16:09:49;;;;;;;10.83;7.53;;;24.90;99.90;;;;;;4994072;28;20186;-74
2021/09/07 16:12:14;;;;;;;7.13;6.43;;;24.90;99.90;;;;;;4993704;28;20195;-75
2021/09/07 16:14:40;;;;;;;11.80;7.50;;;24.90;99.90;;;;;;4977532;28;20175;-75
2021/09/07 16:17:05;;;;;;;8.87;7.03;;;24.90;99.90;;;;;;4973449;28;20255;-75
2021/09/07 16:19:31;;;;;;;7.47;6.60;;;24.80;99.90;;;;;;4974681;28;20180;-73
2021/09/07 16:21:57;;;;;;;7.03;6.33;;;24.80;99.90;;;;;;4973592;28;20200;-75
2021/09/07 16:24:23;;;;;;;7.40;6.70;;;24.80;99.90;;;;;;4974341;28;20180;-74
2021/09/07 16:26:48;;;;;;;13.87;7.67;;;24.70;99.90;;;;;;4974576;28;21069;-74
2021/09/07 16:29:14;;;;;;;7.40;6.70;;;24.70;99.90;;;;;;4981881;28;20201;-74
2021/09/07 16:31:39;;;;;;;7.70;7.00;;;24.70;99.90;;;;;;4992601;28;20424;-72
2021/09/07 16:34:05;;;;;;;7.87;7.07;;;24.60;99.90;;;;;;4993851;28;20176;-75
2021/09/07 16:36:31;;;;;;;9.30;6.33;;;24.60;99.90;;;;;;4993529;28;20175;-75
2021/09/07 16:38:57;;;;;;;7.83;7.13;;;24.60;99.90;;;;;;4993701;28;20418;-75
2021/09/07 16:41:23;;;;;;;9.70;7.07;;;24.60;99.90;;;;;;4993431;28;20207;-74
2021/09/07 16:43:49;;;;;;;7.70;6.90;;;24.50;99.90;;;;;;4993796;28;20421;-75
2021/09/07 16:46:16;;;;;;;8.10;7.30;;;24.50;99.90;;;;;;4993594;28;20275;-75
2021/09/07 16:48:42;;;;;;;8.37;7.37;;;24.40;99.90;;;;;;4993735;28;20907;-75
2021/09/07 16:51:08;;;;;;;10.27;8.87;;;24.40;99.90;;;;;;4993267;28;20442;-75
2021/09/07 16:53:43;;;;;;;9.43;8.03;;;24.40;99.90;;;;;;4993483;28;20978;-75
2021/09/07 16:56:09;;;;;;;13.57;9.23;;;24.30;99.90;;;;;;4993268;28;20187;-74
2021/09/07 16:58:35;;;;;;;12.77;9.70;;;24.30;99.90;;;;;;4993373;28;20784;-75
2021/09/07 17:01:01;;;;;;;12.13;8.80;;;24.20;99.90;;;;;;4992913;28;20706;-75
2021/09/07 17:03:26;;;;;;;12.00;8.83;;;24.10;99.90;;;;;;4993248;28;20518;-75
2021/09/07 17:05:52;;;;;;;9.60;8.60;;;24.00;99.90;;;;;;4993355;28;20236;-73
2021/09/07 17:08:25;;;;;;;9.67;8.67;;;23.90;99.90;;;;;;4993111;28;20595;-75
2021/09/07 17:10:51;;;;;;;11.90;9.10;;;23.80;99.90;;;;;;4992476;28;20210;-75
2021/09/07 17:13:19;;;;;;;10.13;8.97;;;23.60;99.90;;;;;;4993157;28;20426;-75